Time;durP1;ratioP1;P1;durP2;ratioP2;P2;SDS_P1;SDS_P2;PMS_P1;PMS_P2;Temp;Humidity;BMP_temperature;BMP_pressure;BME280_temperature;BME280_humidity;BME280_pressure;Samples;Min_cycle;Max_cycle;Signal;HPM_P1;HPM_P2
2022/08/19 00:00:32;;;;;;;3.40;0.90;;;17.10;99.90;;;;;;5029973;28;20197;-85
2022/08/19 00:03:03;;;;;;;1.13;0.75;;;17.10;99.90;;;;;;5030548;28;20201;-86
2022/08/19 00:05:34;;;;;;;0.50;0.50;;;17.10;99.90;;;;;;5032404;28;20207;-84
2022/08/19 00:08:05;;;;;;;0.57;0.57;;;17.10;99.90;;;;;;5046700;28;20232;-83
2022/08/19 00:10:36;;;;;;;0.65;0.57;;;17.00;99.90;;;;;;5049449;28;20201;-83
2022/08/19 00:13:07;;;;;;;1.85;0.43;;;17.00;99.90;;;;;;5049013;28;20655;-82
2022/08/19 00:15:44;;;;;;;2.17;0.60;;;17.10;99.90;;;;;;5044268;28;20196;-82
2022/08/19 00:18:15;;;;;;;0.68;0.50;;;17.10;99.90;;;;;;5041171;28;20197;-82
2022/08/19 00:20:46;;;;;;;1.00;0.47;;;17.10;99.90;;;;;;5030959;28;20209;-82
2022/08/19 00:23:17;;;;;;;2.03;0.50;;;17.10;99.90;;;;;;5030796;28;20197;-82
2022/08/19 00:25:47;;;;;;;1.65;0.57;;;17.20;99.90;;;;;;5035895;28;20658;-82
2022/08/19 00:28:18;;;;;;;2.03;0.45;;;17.20;99.90;;;;;;5039829;28;20225;-82
2022/08/19 00:30:51;;;;;;;0.75;0.60;;;17.30;99.90;;;;;;5048030;28;20207;-83
2022/08/19 00:33:22;;;;;;;0.98;0.60;;;17.30;99.90;;;;;;5046306;28;20196;-84
2022/08/19 00:35:53;;;;;;;2.45;0.50;;;17.20;99.90;;;;;;5030874;28;20228;-84
2022/08/19 00:38:23;;;;;;;0.90;0.50;;;17.30;99.90;;;;;;5033701;28;20200;-84
2022/08/19 00:40:54;;;;;;;1.50;0.95;;;17.40;99.90;;;;;;5030805;28;20205;-84
2022/08/19 00:43:27;;;;;;;1.20;0.47;;;17.40;99.90;;;;;;5030520;28;20229;-84
2022/08/19 00:46:01;;;;;;;3.50;0.43;;;17.40;99.90;;;;;;5037159;28;20196;-85
2022/08/19 00:48:31;;;;;;;2.30;0.40;;;17.50;99.90;;;;;;5041289;28;20645;-85
2022/08/19 00:51:03;;;;;;;2.53;0.65;;;17.50;99.90;;;;;;5047644;28;20203;-86
2022/08/19 00:53:35;;;;;;;0.70;0.50;;;17.50;99.90;;;;;;5035323;28;20201;-86
2022/08/19 00:56:08;;;;;;;1.83;0.60;;;17.50;99.90;;;;;;5038897;28;20202;-85
2022/08/19 00:58:40;;;;;;;1.27;0.47;;;17.50;99.90;;;;;;5034942;28;20250;-86
2022/08/19 01:01:13;;;;;;;1.10;0.60;;;17.50;99.90;;;;;;5051275;28;20226;-85
2022/08/19 01:03:44;;;;;;;1.27;0.40;;;17.60;99.90;;;;;;5044360;28;20224;-86
2022/08/19 01:06:15;;;;;;;0.65;0.40;;;17.60;99.90;;;;;;5049865;28;20562;-86
2022/08/19 01:08:46;;;;;;;1.48;0.60;;;17.70;99.90;;;;;;5048321;28;20224;-87
2022/08/19 01:11:18;;;;;;;0.93;0.40;;;17.70;99.90;;;;;;5040871;28;20280;-86
2022/08/19 01:13:50;;;;;;;0.47;0.47;;;17.80;99.90;;;;;;5058212;28;20196;-87
2022/08/19 01:16:25;;;;;;;1.45;0.38;;;17.90;99.90;;;;;;5048747;28;20211;-86
2022/08/19 01:18:57;;;;;;;0.50;0.40;;;18.10;99.90;;;;;;5048317;28;20264;-86
2022/08/19 01:21:34;;;;;;;0.60;0.40;;;18.00;99.90;;;;;;5051228;28;20201;-86
2022/08/19 01:24:07;;;;;;;0.70;0.50;;;18.10;99.90;;;;;;5051792;28;20197;-86
2022/08/19 01:26:44;;;;;;;2.40;0.50;;;18.20;99.90;;;;;;5043641;28;20579;-85
2022/08/19 01:29:16;;;;;;;1.35;0.40;;;18.30;99.90;;;;;;5036964;28;20292;-86
2022/08/19 01:31:47;;;;;;;0.88;0.43;;;18.40;99.90;;;;;;5035990;28;20189;-86
2022/08/19 01:34:17;;;;;;;1.40;0.40;;;18.50;99.90;;;;;;5054550;28;20200;-86
2022/08/19 01:36:51;;;;;;;1.70;0.50;;;18.60;99.90;;;;;;5052217;28;20185;-86
2022/08/19 01:39:25;;;;;;;0.30;0.30;;;18.70;99.90;;;;;;5049628;28;20261;-83
2022/08/19 01:41:56;;;;;;;1.10;0.40;;;18.70;99.90;;;;;;5055009;28;20303;-83
2022/08/19 01:44:27;;;;;;;1.08;0.40;;;18.70;99.90;;;;;;5059433;28;20215;-83
2022/08/19 01:46:58;;;;;;;0.52;0.40;;;18.70;99.90;;;;;;5046325;28;20212;-82
2022/08/19 01:49:29;;;;;;;0.30;0.30;;;18.90;99.90;;;;;;5042104;28;20189;-83
2022/08/19 01:52:02;;;;;;;1.05;0.38;;;18.90;99.90;;;;;;5033531;28;20194;-84
2022/08/19 01:54:34;;;;;;;0.50;0.30;;;18.90;99.90;;;;;;5033422;28;20567;-83
2022/08/19 01:57:10;;;;;;;0.82;0.30;;;19.00;99.90;;;;;;5049175;28;20205;-83
2022/08/19 01:59:42;;;;;;;0.50;0.10;;;19.10;99.90;;;;;;5049829;28;20566;-83
2022/08/19 02:02:13;;;;;;;0.75;0.30;;;19.10;99.90;;;;;;5051016;28;20207;-77
2022/08/19 02:04:45;;;;;;;0.22;0.22;;;19.20;99.90;;;;;;5039763;28;20211;-83
2022/08/19 02:07:16;;;;;;;0.20;0.20;;;19.20;99.90;;;;;;5043084;28;20237;-83
2022/08/19 02:09:49;;;;;;;0.20;0.20;;;19.10;99.90;;;;;;5038407;28;20656;-82
2022/08/19 02:12:20;;;;;;;1.50;0.47;;;19.10;99.90;;;;;;5032737;28;20220;-83
2022/08/19 02:14:51;;;;;;;1.27;0.30;;;19.10;99.90;;;;;;5033521;28;21769;-83
2022/08/19 02:17:22;;;;;;;0.73;0.38;;;19.10;99.90;;;;;;5041343;28;20216;-81
2022/08/19 02:19:52;;;;;;;0.43;0.30;;;19.10;99.90;;;;;;5045029;28;20682;-80
2022/08/19 02:22:24;;;;;;;0.47;0.25;;;19.10;99.90;;;;;;5051078;28;20787;-80
2022/08/19 02:24:57;;;;;;;0.40;0.28;;;19.10;99.90;;;;;;5049299;28;20212;-80
2022/08/19 02:27:28;;;;;;;0.30;0.30;;;19.10;99.90;;;;;;5052300;28;20712;-80
2022/08/19 02:29:58;;;;;;;0.73;0.40;;;19.10;99.90;;;;;;5051316;28;20382;-80
2022/08/19 02:32:30;;;;;;;1.75;0.30;;;19.20;99.90;;;;;;5050130;28;20201;-79
2022/08/19 02:35:01;;;;;;;0.20;0.20;;;19.40;99.90;;;;;;5043543;28;20204;-80
2022/08/19 02:40:20;;;;;;;0.40;0.40;;;19.50;99.90;;;;;;5032471;28;20205;-81
2022/08/19 02:42:52;;;;;;;0.50;0.40;;;19.50;99.90;;;;;;5032220;28;20233;-80
2022/08/19 02:45:22;;;;;;;0.50;0.40;;;19.60;99.90;;;;;;5032854;28;20202;-80
2022/08/19 02:47:53;;;;;;;1.40;0.50;;;19.70;99.90;;;;;;5049427;28;20228;-80
2022/08/19 02:50:24;;;;;;;0.55;0.45;;;19.90;99.90;;;;;;5044407;28;20200;-80
2022/08/19 02:52:55;;;;;;;0.88;0.40;;;20.10;99.90;;;;;;5046618;28;20228;-80
2022/08/19 02:55:27;;;;;;;0.30;0.30;;;20.10;99.90;;;;;;5050706;28;20201;-80
2022/08/19 02:57:59;;;;;;;0.57;0.50;;;20.10;99.90;;;;;;5045247;28;20204;-80
2022/08/19 03:00:30;;;;;;;0.90;0.63;;;20.00;99.90;;;;;;5043046;28;20207;-80
2022/08/19 03:03:01;;;;;;;0.68;0.50;;;19.90;99.90;;;;;;5050177;28;20296;-80
2022/08/19 03:05:32;;;;;;;0.60;0.47;;;19.90;99.90;;;;;;5050525;28;20245;-81
2022/08/19 03:08:03;;;;;;;0.82;0.40;;;19.90;99.90;;;;;;5048770;28;20229;-81
2022/08/19 03:10:36;;;;;;;0.82;0.43;;;19.90;99.90;;;;;;5051449;28;20610;-80
2022/08/19 03:13:07;;;;;;;1.48;0.57;;;20.00;99.90;;;;;;5051532;28;20201;-80
2022/08/19 03:15:41;;;;;;;3.90;1.00;;;20.00;99.90;;;;;;5050069;28;20271;-80
2022/08/19 03:18:12;;;;;;;0.73;0.73;;;20.00;99.90;;;;;;5040261;28;20204;-80
2022/08/19 03:20:47;;;;;;;1.55;0.57;;;19.90;99.90;;;;;;5046733;28;20188;-84
2022/08/19 03:23:18;;;;;;;0.70;0.40;;;19.90;99.90;;;;;;5035650;28;20250;-81
2022/08/19 03:25:52;;;;;;;0.40;0.38;;;20.00;99.90;;;;;;5045814;28;20201;-80
2022/08/19 03:28:24;;;;;;;1.50;0.63;;;20.10;99.90;;;;;;5043046;28;20243;-83
2022/08/19 03:31:02;;;;;;;1.65;0.47;;;20.10;99.90;;;;;;5050317;28;20210;-83
2022/08/19 03:33:34;;;;;;;0.95;0.63;;;20.20;99.90;;;;;;5049524;28;20204;-82
2022/08/19 03:36:08;;;;;;;0.65;0.57;;;20.50;99.90;;;;;;5051342;28;20200;-80
2022/08/19 03:38:41;;;;;;;2.15;0.52;;;20.60;99.90;;;;;;5050158;28;20282;-81
2022/08/19 03:41:15;;;;;;;1.65;0.50;;;20.70;99.90;;;;;;5049752;28;20208;-80
2022/08/19 03:43:47;;;;;;;0.40;0.38;;;20.60;99.90;;;;;;5043211;28;20224;-80
2022/08/19 03:46:21;;;;;;;0.32;0.32;;;20.50;99.90;;;;;;5049146;28;20204;-81
2022/08/19 03:48:53;;;;;;;0.98;0.50;;;20.50;99.90;;;;;;5045377;28;20274;-81
2022/08/19 03:51:27;;;;;;;0.55;0.40;;;20.40;99.90;;;;;;5049765;28;20254;-81
2022/08/19 03:53:59;;;;;;;1.67;0.60;;;20.40;99.90;;;;;;5049732;28;20562;-80
2022/08/19 03:56:32;;;;;;;2.22;0.32;;;20.40;99.90;;;;;;5036248;28;20220;-81
2022/08/19 03:59:03;;;;;;;0.43;0.40;;;20.30;99.90;;;;;;5044048;28;20227;-82
2022/08/19 04:01:34;;;;;;;0.30;0.28;;;20.20;99.90;;;;;;5036396;28;20571;-80
2022/08/19 04:04:05;;;;;;;0.47;0.30;;;20.10;99.90;;;;;;5046736;28;20213;-81
2022/08/19 04:06:38;;;;;;;0.32;0.32;;;20.00;99.90;;;;;;5041439;28;20201;-80
2022/08/19 04:09:11;;;;;;;0.60;0.30;;;20.00;99.90;;;;;;5050566;28;20307;-81
2022/08/19 04:11:49;;;;;;;0.52;0.20;;;20.00;99.90;;;;;;5049636;28;20205;-80
2022/08/19 04:14:21;;;;;;;0.40;0.35;;;19.90;99.90;;;;;;5047163;28;20196;-81
2022/08/19 04:16:53;;;;;;;1.00;0.80;;;19.90;99.90;;;;;;5040401;28;20579;-81
2022/08/19 04:19:23;;;;;;;2.47;1.85;;;19.90;99.90;;;;;;5050337;28;20200;-83
2022/08/19 04:21:57;;;;;;;2.55;1.27;;;19.90;99.90;;;;;;5048311;28;20597;-81
2022/08/19 04:24:28;;;;;;;2.47;0.80;;;19.90;99.90;;;;;;5046511;28;20200;-82
2022/08/19 04:27:02;;;;;;;0.40;0.40;;;20.10;99.90;;;;;;5039589;28;20674;-82
2022/08/19 04:29:33;;;;;;;0.35;0.32;;;20.20;99.90;;;;;;5044722;28;20219;-81
2022/08/19 04:32:05;;;;;;;0.30;0.30;;;20.30;99.90;;;;;;5042450;28;20221;-82
2022/08/19 04:34:36;;;;;;;0.43;0.40;;;20.30;99.90;;;;;;5051372;28;20243;-81
2022/08/19 04:37:11;;;;;;;0.65;0.47;;;20.40;99.90;;;;;;5053476;28;20222;-80
2022/08/19 04:42:42;;;;;;;0.45;0.35;;;20.40;99.90;;;;;;4991415;28;20245;-79
2022/08/19 04:45:16;;;;;;;0.30;0.30;;;20.20;99.90;;;;;;5030749;28;20198;-81
2022/08/19 04:47:47;;;;;;;2.42;0.40;;;20.20;99.90;;;;;;5042049;28;20708;-80
2022/08/19 04:50:18;;;;;;;2.22;0.40;;;20.00;99.90;;;;;;5047963;28;20205;-82
2022/08/19 04:52:49;;;;;;;0.55;0.30;;;20.00;99.90;;;;;;5046841;28;20239;-81
2022/08/19 04:55:20;;;;;;;3.53;0.40;;;20.00;99.90;;;;;;5029465;28;20284;-82
2022/08/19 04:57:52;;;;;;;1.63;0.17;;;19.90;99.90;;;;;;5045205;28;20566;-81
2022/08/19 05:00:23;;;;;;;0.43;0.40;;;19.80;99.90;;;;;;5044212;28;20192;-81
2022/08/19 05:02:54;;;;;;;0.47;0.40;;;19.70;99.90;;;;;;5050437;28;20223;-83
2022/08/19 05:05:25;;;;;;;1.92;0.50;;;19.70;99.90;;;;;;5052327;28;20224;-83
2022/08/19 05:07:56;;;;;;;0.85;0.35;;;19.70;99.90;;;;;;5045806;28;20210;-81
2022/08/19 05:10:27;;;;;;;0.30;0.30;;;19.60;99.90;;;;;;5034117;28;20193;-82
2022/08/19 05:12:59;;;;;;;1.40;0.32;;;19.60;99.90;;;;;;5052491;28;20203;-82
2022/08/19 05:15:30;;;;;;;0.65;0.38;;;19.40;99.90;;;;;;5052513;28;20200;-83
2022/08/19 05:23:34;;;;;;;2.58;0.68;;;18.70;99.90;;;;;;5052441;28;20674;-84
2022/08/19 05:26:05;;;;;;;1.08;0.40;;;18.40;99.90;;;;;;5045647;28;20201;-83
2022/08/19 05:28:38;;;;;;;3.50;0.45;;;18.20;99.90;;;;;;5039153;28;20288;-83
2022/08/19 05:31:09;;;;;;;0.80;0.40;;;18.00;99.90;;;;;;5038683;28;20201;-82
2022/08/19 05:33:40;;;;;;;0.50;0.38;;;17.80;99.90;;;;;;5044120;28;20656;-83
2022/08/19 05:36:11;;;;;;;0.73;0.43;;;17.70;99.90;;;;;;5049314;28;20201;-83
2022/08/19 05:38:42;;;;;;;2.25;0.50;;;17.80;99.90;;;;;;5052012;28;20236;-82
2022/08/19 05:41:14;;;;;;;0.57;0.40;;;17.90;99.90;;;;;;5043651;28;20212;-82
2022/08/19 05:43:47;;;;;;;1.10;0.38;;;17.90;99.90;;;;;;5047463;28;20707;-84
2022/08/19 05:46:22;;;;;;;1.30;0.60;;;18.00;99.90;;;;;;5046782;28;20557;-83
2022/08/19 05:48:53;;;;;;;1.27;1.10;;;18.10;99.90;;;;;;5047424;28;20255;-81
2022/08/19 05:51:26;;;;;;;4.05;1.05;;;18.20;99.90;;;;;;5049760;28;20199;-80
2022/08/19 05:53:57;;;;;;;0.55;0.50;;;18.20;99.90;;;;;;5045578;28;20659;-80
2022/08/19 05:56:30;;;;;;;3.53;0.60;;;18.20;99.90;;;;;;5047050;28;20197;-81
2022/08/19 05:59:03;;;;;;;1.30;0.60;;;18.00;99.90;;;;;;5044163;28;20233;-81
2022/08/19 06:01:34;;;;;;;0.65;0.25;;;18.10;99.90;;;;;;5042919;28;20262;-82
2022/08/19 06:04:06;;;;;;;0.57;0.20;;;18.10;99.90;;;;;;5051219;28;20216;-81
2022/08/19 06:06:37;;;;;;;1.67;0.10;;;18.10;99.90;;;;;;5047355;28;20679;-79
2022/08/19 06:09:10;;;;;;;0.10;0.10;;;18.20;99.90;;;;;;5037005;28;20224;-81
2022/08/19 06:11:43;;;;;;;0.10;0.10;;;18.10;99.90;;;;;;5042154;28;20213;-82
2022/08/19 06:14:18;;;;;;;3.72;1.33;;;18.10;99.90;;;;;;5042322;28;20221;-80
2022/08/19 06:16:50;;;;;;;1.30;0.40;;;18.10;99.90;;;;;;5038698;28;20216;-80
2022/08/19 06:19:24;;;;;;;0.22;0.22;;;18.20;99.90;;;;;;5040570;28;20287;-81
2022/08/19 06:21:55;;;;;;;2.40;0.60;;;18.30;99.90;;;;;;5046213;28;20192;-80
2022/08/19 06:24:27;;;;;;;0.40;0.20;;;18.50;99.90;;;;;;5041672;28;20201;-81
2022/08/19 06:26:59;;;;;;;1.48;0.30;;;18.80;99.90;;;;;;5044307;28;20224;-82
2022/08/19 06:29:32;;;;;;;1.45;0.40;;;19.00;99.90;;;;;;5043161;28;20709;-81
2022/08/19 06:32:05;;;;;;;0.30;0.30;;;18.90;99.90;;;;;;5044531;28;20201;-81
2022/08/19 06:34:36;;;;;;;2.33;0.28;;;19.00;99.90;;;;;;5042055;28;20201;-79
2022/08/19 06:37:07;;;;;;;0.90;0.20;;;19.10;99.90;;;;;;5049610;28;20535;-80
2022/08/19 06:39:40;;;;;;;0.88;0.30;;;18.90;99.90;;;;;;5049488;28;20197;-82
2022/08/19 06:42:11;;;;;;;0.38;0.30;;;18.90;99.90;;;;;;5048407;28;20236;-81
2022/08/19 06:44:45;;;;;;;1.50;0.30;;;19.00;99.90;;;;;;5045012;28;20207;-80
2022/08/19 06:47:17;;;;;;;5.30;1.52;;;19.20;99.90;;;;;;5043045;28;20705;-80
2022/08/19 06:49:48;;;;;;;8.45;1.52;;;19.20;99.90;;;;;;5042297;28;20228;-79
2022/08/19 06:52:19;;;;;;;9.57;1.67;;;19.20;99.90;;;;;;5038880;28;20702;-81
2022/08/19 06:54:50;;;;;;;7.15;1.45;;;18.90;99.90;;;;;;5043354;28;20231;-80
2022/08/19 06:57:21;;;;;;;10.68;1.98;;;18.70;99.90;;;;;;5050411;28;20197;-80
2022/08/19 06:59:54;;;;;;;9.35;1.60;;;18.40;99.90;;;;;;5040805;28;20242;-81
2022/08/19 07:02:26;;;;;;;5.45;1.30;;;18.20;99.90;;;;;;5043117;28;20212;-81
2022/08/19 07:04:57;;;;;;;8.18;1.35;;;17.80;99.90;;;;;;5032937;28;20505;-81
2022/08/19 07:07:28;;;;;;;4.47;1.10;;;17.70;99.90;;;;;;5050473;28;20200;-81
2022/08/19 07:09:59;;;;;;;5.55;1.20;;;17.60;99.90;;;;;;5050569;28;20220;-80
2022/08/19 07:12:32;;;;;;;4.15;1.17;;;17.40;99.90;;;;;;5036102;28;20219;-81
2022/08/19 07:15:05;;;;;;;2.78;1.08;;;17.20;99.90;;;;;;5055472;28;20224;-81
2022/08/19 07:17:38;;;;;;;4.72;1.10;;;17.10;99.90;;;;;;5048995;28;20570;-82
2022/08/19 07:20:10;;;;;;;2.60;1.02;;;17.00;99.90;;;;;;5047917;28;20208;-81
2022/08/19 07:22:42;;;;;;;2.90;1.20;;;16.90;99.90;;;;;;5049945;28;20567;-81
2022/08/19 07:25:13;;;;;;;3.17;1.10;;;16.90;99.90;;;;;;5032074;28;20277;-81
2022/08/19 07:27:44;;;;;;;5.00;1.40;;;16.80;99.90;;;;;;5049599;28;20564;-82
2022/08/19 07:30:17;;;;;;;2.88;1.00;;;16.80;99.90;;;;;;5048887;28;20220;-82
2022/08/19 07:32:50;;;;;;;3.42;1.02;;;16.70;99.90;;;;;;5049654;28;20238;-81
2022/08/19 07:35:21;;;;;;;5.07;0.90;;;16.50;99.90;;;;;;5048960;28;20207;-80
2022/08/19 07:37:52;;;;;;;1.63;0.80;;;16.50;99.90;;;;;;5051003;28;20205;-80
2022/08/19 07:40:23;;;;;;;5.03;1.00;;;16.40;99.90;;;;;;5050171;28;20216;-80
2022/08/19 07:42:54;;;;;;;1.45;0.70;;;16.30;99.90;;;;;;5050528;28;20260;-81
2022/08/19 07:45:27;;;;;;;3.28;1.58;;;16.30;99.90;;;;;;5049525;28;20228;-80
2022/08/19 07:47:58;;;;;;;1.85;1.20;;;16.20;99.90;;;;;;5046033;28;20573;-80
2022/08/19 07:50:52;;;;;;;4.13;1.60;;;16.20;99.90;;;;;;5050326;28;20216;-81
2022/08/19 07:56:41;;;;;;;2.25;1.15;;;16.20;99.90;;;;;;5042487;28;20224;-81
2022/08/19 07:59:16;;;;;;;3.08;0.80;;;16.20;99.90;;;;;;5044810;28;20208;-81
2022/08/19 08:01:49;;;;;;;1.83;0.65;;;16.20;99.90;;;;;;5046330;28;20199;-81
2022/08/19 08:09:58;;;;;;;2.08;0.70;;;16.10;99.90;;;;;;5049844;28;20285;-81
2022/08/19 08:12:30;;;;;;;1.33;0.70;;;16.00;99.90;;;;;;5049959;28;20230;-81
2022/08/19 08:15:04;;;;;;;1.40;0.90;;;16.00;99.90;;;;;;5039353;28;20197;-81
2022/08/19 08:17:37;;;;;;;0.98;0.75;;;15.90;99.90;;;;;;5040251;28;20336;-81
2022/08/19 08:20:08;;;;;;;2.35;1.10;;;15.80;99.90;;;;;;5048342;28;20211;-82
2022/08/19 08:25:26;;;;;;;2.80;0.50;;;15.70;99.90;;;;;;5047774;28;20254;-81
2022/08/19 08:27:59;;;;;;;1.73;0.75;;;15.70;99.90;;;;;;5048807;28;20856;-81
2022/08/19 08:30:35;;;;;;;1.30;0.70;;;15.70;99.90;;;;;;5047443;28;20216;-80
2022/08/19 08:33:08;;;;;;;4.28;1.10;;;15.70;99.90;;;;;;5036633;28;20580;-79
2022/08/19 08:35:39;;;;;;;1.73;0.90;;;15.70;99.90;;;;;;5047799;28;20693;-80
2022/08/19 08:38:10;;;;;;;2.70;1.20;;;15.70;99.90;;;;;;5048868;28;20201;-80
2022/08/19 08:40:48;;;;;;;1.55;0.80;;;15.60;99.90;;;;;;5050281;28;20654;-80
2022/08/19 08:43:30;;;;;;;2.25;0.70;;;15.60;99.90;;;;;;5050192;28;20244;-81
2022/08/19 08:46:06;;;;;;;7.18;2.03;;;15.60;99.90;;;;;;5049905;28;20199;-81
2022/08/19 08:48:46;;;;;;;2.13;0.93;;;15.60;99.90;;;;;;5046581;28;20192;-81
2022/08/19 08:51:22;;;;;;;3.60;1.50;;;15.60;99.90;;;;;;5047540;28;20208;-80
2022/08/19 08:53:55;;;;;;;2.65;1.33;;;15.60;99.90;;;;;;5050199;28;20196;-81
2022/08/19 08:56:26;;;;;;;3.30;1.60;;;15.50;99.90;;;;;;5048413;28;20628;-83
2022/08/19 08:59:01;;;;;;;4.28;1.95;;;15.40;99.90;;;;;;5049777;28;20208;-83
2022/08/19 09:01:32;;;;;;;4.50;1.63;;;15.40;99.90;;;;;;5048151;28;20192;-82
2022/08/19 09:04:07;;;;;;;2.78;1.48;;;15.40;99.90;;;;;;5046443;28;20293;-81
2022/08/19 09:06:46;;;;;;;4.93;2.60;;;15.40;99.90;;;;;;5046293;28;20198;-82
2022/08/19 09:09:22;;;;;;;6.25;2.83;;;15.40;99.90;;;;;;5044142;28;20208;-81
2022/08/19 09:11:59;;;;;;;9.70;3.92;;;15.30;99.90;;;;;;5049319;28;20224;-80
2022/08/19 09:14:40;;;;;;;8.05;3.35;;;15.20;99.90;;;;;;5047221;28;20582;-81
2022/08/19 09:17:12;;;;;;;3.47;1.70;;;15.20;99.90;;;;;;5045441;28;20201;-81
2022/08/19 09:19:54;;;;;;;5.07;2.67;;;15.20;99.90;;;;;;5049484;28;20598;-81
2022/08/19 09:22:26;;;;;;;6.13;3.53;;;15.20;99.90;;;;;;5042404;28;20273;-81
2022/08/19 09:24:57;;;;;;;2.15;1.73;;;15.10;99.90;;;;;;5049432;28;20676;-85
2022/08/19 09:27:29;;;;;;;4.68;2.85;;;15.10;99.90;;;;;;5046831;28;20212;-82
2022/08/19 09:30:00;;;;;;;21.00;13.13;;;15.10;99.90;;;;;;5032909;28;20236;-80
2022/08/19 09:32:30;;;;;;;5.60;3.17;;;15.00;99.90;;;;;;5039210;28;20196;-81
2022/08/19 09:35:03;;;;;;;4.55;2.58;;;15.00;99.90;;;;;;5047535;28;20208;-82
2022/08/19 09:37:37;;;;;;;3.88;2.28;;;15.00;99.90;;;;;;5049419;28;20224;-80
2022/08/19 09:40:09;;;;;;;5.53;1.98;;;15.00;99.90;;;;;;5044992;28;20196;-80
2022/08/19 09:42:41;;;;;;;4.90;2.35;;;15.00;99.90;;;;;;5044180;28;20601;-81
2022/08/19 09:45:12;;;;;;;6.05;3.10;;;15.00;99.90;;;;;;5048728;28;20197;-80
2022/08/19 09:47:43;;;;;;;2.72;1.80;;;15.00;99.90;;;;;;5051188;28;20270;-80
2022/08/19 09:50:18;;;;;;;7.40;2.60;;;14.90;99.90;;;;;;5050893;28;20232;-81
2022/08/19 09:52:49;;;;;;;3.80;2.00;;;14.90;99.90;;;;;;5046585;28;20682;-80
2022/08/19 09:55:20;;;;;;;4.43;2.20;;;14.90;99.90;;;;;;5052144;28;20199;-82
2022/08/19 09:57:50;;;;;;;3.03;1.80;;;14.90;99.90;;;;;;5049174;28;20246;-82
2022/08/19 10:00:21;;;;;;;4.43;2.80;;;14.90;99.90;;;;;;5052878;28;20219;-82
2022/08/19 10:02:52;;;;;;;5.35;2.65;;;14.80;99.90;;;;;;5047603;28;20296;-81
2022/08/19 10:08:12;;;;;;;2.20;1.70;;;14.80;99.90;;;;;;5047882;28;20195;-86
2022/08/19 10:10:44;;;;;;;3.90;2.00;;;14.70;99.90;;;;;;5050451;28;20224;-89
2022/08/19 10:13:15;;;;;;;3.60;2.10;;;14.70;99.90;;;;;;5039508;28;20571;-87
2022/08/19 10:15:46;;;;;;;9.80;3.92;;;14.70;99.90;;;;;;5047135;28;20194;-86
2022/08/19 10:18:18;;;;;;;5.35;2.38;;;14.70;99.90;;;;;;5041003;28;20201;-87
2022/08/19 10:20:53;;;;;;;3.53;1.75;;;14.60;99.90;;;;;;5045067;28;20663;-86
2022/08/19 10:23:24;;;;;;;3.25;1.90;;;14.60;99.90;;;;;;5038780;28;20212;-88
2022/08/19 10:25:55;;;;;;;3.38;2.03;;;14.60;99.90;;;;;;5049655;28;20199;-87
2022/08/19 10:28:26;;;;;;;3.13;1.80;;;14.60;99.90;;;;;;5043591;28;20215;-87
2022/08/19 10:30:57;;;;;;;4.50;2.40;;;14.70;99.90;;;;;;5039793;28;20228;-85
2022/08/19 10:33:27;;;;;;;5.20;2.40;;;14.60;99.90;;;;;;5036027;28;20205;-85
2022/08/19 10:36:05;;;;;;;4.07;2.80;;;14.60;99.90;;;;;;5033813;28;20190;-82
2022/08/19 10:38:36;;;;;;;3.15;1.77;;;14.60;99.90;;;;;;5033775;28;20208;-86
2022/08/19 10:41:16;;;;;;;3.05;2.33;;;14.60;99.90;;;;;;5040749;28;20564;-86
2022/08/19 10:43:47;;;;;;;2.17;1.58;;;14.60;99.90;;;;;;5033196;28;20239;-85
2022/08/19 10:46:19;;;;;;;2.30;1.63;;;14.60;99.90;;;;;;5043260;28;20625;-86
2022/08/19 10:48:53;;;;;;;5.38;1.92;;;14.50;99.90;;;;;;5046061;28;20208;-85
2022/08/19 10:54:12;;;;;;;6.20;2.85;;;14.50;99.90;;;;;;5035661;28;20216;-85
2022/08/19 10:56:54;;;;;;;4.53;2.80;;;14.50;99.90;;;;;;5038430;28;20668;-86
2022/08/19 10:59:28;;;;;;;3.78;2.72;;;14.50;99.90;;;;;;5035072;28;20272;-85
2022/08/19 11:02:03;;;;;;;3.83;2.58;;;14.50;99.90;;;;;;5049944;28;20204;-86
2022/08/19 11:04:33;;;;;;;6.78;2.85;;;14.40;99.90;;;;;;5043681;28;20197;-84
2022/08/19 11:07:06;;;;;;;3.72;2.30;;;14.30;99.90;;;;;;5045011;28;20545;-85
2022/08/19 11:09:43;;;;;;;3.97;2.38;;;14.30;99.90;;;;;;5052538;28;20604;-86
2022/08/19 11:12:15;;;;;;;2.45;2.15;;;14.20;99.90;;;;;;5052941;28;20678;-85
2022/08/19 11:14:45;;;;;;;5.18;2.28;;;14.20;99.90;;;;;;5048288;28;20219;-88
2022/08/19 11:17:16;;;;;;;4.45;2.13;;;14.20;99.90;;;;;;5045003;28;20559;-87
2022/08/19 11:19:49;;;;;;;2.85;2.10;;;14.20;99.90;;;;;;5049066;28;20193;-85
2022/08/19 11:22:21;;;;;;;4.50;2.40;;;14.10;99.90;;;;;;5035374;28;20206;-87
2022/08/19 11:24:52;;;;;;;3.78;2.15;;;14.10;99.90;;;;;;5051749;28;20678;-86
2022/08/19 11:27:23;;;;;;;3.60;2.20;;;14.10;99.90;;;;;;5049641;28;20207;-87
2022/08/19 11:29:54;;;;;;;3.38;2.22;;;14.00;99.90;;;;;;5051565;28;20288;-86
2022/08/19 11:32:25;;;;;;;3.58;2.50;;;14.10;99.90;;;;;;5037898;28;20283;-86
2022/08/19 11:34:56;;;;;;;5.45;2.42;;;14.10;99.90;;;;;;5050853;28;20196;-86
2022/08/19 11:37:29;;;;;;;3.13;2.03;;;14.00;99.90;;;;;;5053086;28;20204;-85
2022/08/19 11:40:00;;;;;;;3.42;2.35;;;14.00;99.90;;;;;;5043769;28;20252;-86
2022/08/19 11:45:17;;;;;;;3.15;2.10;;;14.00;99.90;;;;;;5034035;28;20575;-84
2022/08/19 11:47:48;;;;;;;2.60;1.80;;;14.00;99.90;;;;;;5049986;28;20189;-87
2022/08/19 11:50:19;;;;;;;3.15;1.85;;;14.10;99.90;;;;;;5035723;28;20220;-85
2022/08/19 11:52:53;;;;;;;2.90;1.63;;;14.10;99.90;;;;;;5053687;28;20199;-85
2022/08/19 11:55:25;;;;;;;2.05;1.70;;;14.10;99.90;;;;;;5060348;28;20224;-86
2022/08/19 11:57:55;;;;;;;2.38;1.90;;;14.10;99.90;;;;;;5054848;28;20201;-86
2022/08/19 12:00:26;;;;;;;2.13;1.80;;;14.10;99.90;;;;;;5049848;28;20203;-87
2022/08/19 12:02:57;;;;;;;3.13;2.13;;;14.10;99.90;;;;;;5048879;28;20726;-86
2022/08/19 12:05:29;;;;;;;3.20;2.00;;;14.10;99.90;;;;;;5051719;28;20201;-86
2022/08/19 12:08:02;;;;;;;2.50;2.10;;;14.10;99.90;;;;;;5052521;28;20294;-86
2022/08/19 12:10:33;;;;;;;2.05;1.67;;;14.10;99.90;;;;;;5037223;28;20235;-86
2022/08/19 12:13:04;;;;;;;3.00;2.05;;;14.10;99.90;;;;;;5032400;28;20281;-86
2022/08/19 12:15:40;;;;;;;2.58;1.98;;;14.00;99.90;;;;;;5036732;28;20205;-87
2022/08/19 12:18:13;;;;;;;1.92;1.40;;;14.00;99.90;;;;;;5050508;28;20196;-85
2022/08/19 12:20:45;;;;;;;1.88;1.33;;;14.00;99.90;;;;;;5048993;28;20258;-86
2022/08/19 12:23:19;;;;;;;1.60;1.50;;;14.00;99.90;;;;;;5071841;28;20207;-85
2022/08/19 12:25:51;;;;;;;2.95;1.50;;;14.00;99.90;;;;;;5055515;28;20231;-86
2022/08/19 12:28:25;;;;;;;1.40;1.30;;;14.00;99.90;;;;;;5032232;28;20591;-86
2022/08/19 12:30:55;;;;;;;1.77;1.48;;;14.00;99.90;;;;;;5051536;28;20559;-86
2022/08/19 12:33:28;;;;;;;1.40;1.30;;;14.00;99.90;;;;;;5040435;28;20196;-85
2022/08/19 12:36:03;;;;;;;1.80;1.38;;;14.00;99.90;;;;;;5031602;28;20288;-84
2022/08/19 12:38:36;;;;;;;1.83;1.30;;;13.90;99.90;;;;;;5039295;28;20238;-86
2022/08/19 12:41:08;;;;;;;1.50;1.30;;;13.90;99.90;;;;;;5051616;28;20246;-85
2022/08/19 12:43:39;;;;;;;2.42;1.88;;;14.00;99.90;;;;;;5051264;28;20228;-85
2022/08/19 12:46:10;;;;;;;1.70;1.30;;;13.90;99.90;;;;;;5044454;28;20197;-85
2022/08/19 12:48:44;;;;;;;2.03;1.40;;;13.90;99.90;;;;;;5046002;28;20556;-84
2022/08/19 12:51:20;;;;;;;2.65;1.40;;;13.90;99.90;;;;;;5047451;28;20702;-85
2022/08/19 12:53:54;;;;;;;3.03;1.40;;;13.80;99.90;;;;;;5047327;28;20228;-85
2022/08/19 12:56:25;;;;;;;3.55;1.42;;;13.80;99.90;;;;;;5035881;28;20210;-86
2022/08/19 12:58:56;;;;;;;1.83;1.40;;;13.70;99.90;;;;;;5046719;28;20205;-85
2022/08/19 13:01:27;;;;;;;2.88;1.50;;;13.70;99.90;;;;;;5031099;28;20197;-86
2022/08/19 13:03:58;;;;;;;2.40;1.40;;;13.70;99.90;;;;;;5048548;28;20192;-86
2022/08/19 13:06:29;;;;;;;2.80;1.33;;;13.70;99.90;;;;;;5051899;28;20199;-85
2022/08/19 13:09:01;;;;;;;2.53;1.30;;;13.70;99.90;;;;;;5041380;28;20221;-85
2022/08/19 13:11:33;;;;;;;3.55;1.50;;;13.70;99.90;;;;;;5040679;28;20229;-84
2022/08/19 13:14:05;;;;;;;2.00;1.20;;;13.70;99.90;;;;;;5038337;28;20816;-84
2022/08/19 13:16:36;;;;;;;4.07;1.45;;;13.70;99.90;;;;;;5037802;28;20233;-85
2022/08/19 13:19:07;;;;;;;3.10;1.42;;;13.60;99.90;;;;;;5041491;28;20185;-85
2022/08/19 13:21:38;;;;;;;3.67;1.58;;;13.60;99.90;;;;;;5041284;28;20276;-82
2022/08/19 13:24:11;;;;;;;3.95;1.55;;;13.60;99.90;;;;;;5035541;28;20197;-82
2022/08/19 13:26:42;;;;;;;2.20;1.60;;;13.60;99.90;;;;;;5043949;28;20205;-82
2022/08/19 13:35:02;;;;;;;3.33;1.40;;;13.60;99.90;;;;;;5007957;28;20224;-82
2022/08/19 13:37:45;;;;;;;1.77;1.10;;;13.60;99.90;;;;;;4992931;28;20217;-83
2022/08/19 13:40:19;;;;;;;2.50;1.13;;;13.70;99.90;;;;;;5025882;28;20200;-84
2022/08/19 13:42:51;;;;;;;1.92;1.10;;;13.70;99.90;;;;;;5051470;28;20699;-83
2022/08/19 13:45:24;;;;;;;2.75;1.23;;;13.70;99.90;;;;;;5059273;28;20209;-83
2022/08/19 13:47:58;;;;;;;2.72;1.20;;;13.70;99.90;;;;;;5050494;28;20217;-83